sensor_id;sensor_type;location;lat;lon;timestamp;P1;durP1;ratioP1;P2;durP2;ratioP2
18933;SDS011;9599;53.706;10.384;2022-08-03T00:01:33;4.40;;;3.20;;
18933;SDS011;9599;53.706;10.384;2022-08-03T00:04:01;5.67;;;3.00;;
18933;SDS011;9599;53.706;10.384;2022-08-03T00:06:29;6.77;;;3.40;;
18933;SDS011;9599;53.706;10.384;2022-08-03T00:09:02;4.50;;;3.30;;
18933;SDS011;9599;53.706;10.384;2022-08-03T00:11:32;4.50;;;3.20;;
18933;SDS011;9599;53.706;10.384;2022-08-03T00:14:00;7.00;;;3.70;;
18933;SDS011;9599;53.706;10.384;2022-08-03T00:16:28;4.60;;;3.50;;
18933;SDS011;9599;53.706;10.384;2022-08-03T00:18:56;5.07;;;3.80;;
18933;SDS011;9599;53.706;10.384;2022-08-03T00:21:26;4.37;;;3.70;;
18933;SDS011;9599;53.706;10.384;2022-08-03T00:23:54;5.33;;;4.03;;
18933;SDS011;9599;53.706;10.384;2022-08-03T00:26:23;5.33;;;3.30;;
18933;SDS011;9599;53.706;10.384;2022-08-03T00:28:52;4.20;;;3.67;;
18933;SDS011;9599;53.706;10.384;2022-08-03T00:31:20;5.07;;;3.73;;
18933;SDS011;9599;53.706;10.384;2022-08-03T00:34:08;4.83;;;4.00;;
18933;SDS011;9599;53.706;10.384;2022-08-03T00:36:37;4.57;;;3.90;;
18933;SDS011;9599;53.706;10.384;2022-08-03T00:39:06;6.53;;;3.67;;
18933;SDS011;9599;53.706;10.384;2022-08-03T00:41:34;4.70;;;3.70;;
18933;SDS011;9599;53.706;10.384;2022-08-03T00:44:03;4.53;;;3.70;;
18933;SDS011;9599;53.706;10.384;2022-08-03T00:46:31;5.87;;;4.10;;
18933;SDS011;9599;53.706;10.384;2022-08-03T00:48:59;4.40;;;3.80;;
18933;SDS011;9599;53.706;10.384;2022-08-03T00:51:28;5.80;;;3.90;;
18933;SDS011;9599;53.706;10.384;2022-08-03T00:53:56;6.80;;;3.80;;
18933;SDS011;9599;53.706;10.384;2022-08-03T00:56:24;4.50;;;4.10;;
18933;SDS011;9599;53.706;10.384;2022-08-03T00:58:52;5.93;;;4.40;;
18933;SDS011;9599;53.706;10.384;2022-08-03T01:01:24;5.50;;;4.23;;
18933;SDS011;9599;53.706;10.384;2022-08-03T01:03:57;4.63;;;4.20;;
18933;SDS011;9599;53.706;10.384;2022-08-03T01:06:28;7.17;;;4.30;;
18933;SDS011;9599;53.706;10.384;2022-08-03T01:09:08;5.67;;;4.63;;
18933;SDS011;9599;53.706;10.384;2022-08-03T01:11:45;5.20;;;4.00;;
18933;SDS011;9599;53.706;10.384;2022-08-03T01:14:29;5.00;;;4.30;;
18933;SDS011;9599;53.706;10.384;2022-08-03T01:17:04;5.13;;;4.50;;
18933;SDS011;9599;53.706;10.384;2022-08-03T01:19:45;5.33;;;4.70;;
18933;SDS011;9599;53.706;10.384;2022-08-03T01:22:27;6.80;;;4.40;;
18933;SDS011;9599;53.706;10.384;2022-08-03T01:25:13;7.27;;;4.43;;
18933;SDS011;9599;53.706;10.384;2022-08-03T01:27:53;5.07;;;4.67;;
18933;SDS011;9599;53.706;10.384;2022-08-03T01:30:30;6.50;;;4.67;;
18933;SDS011;9599;53.706;10.384;2022-08-03T01:33:02;6.10;;;5.20;;
18933;SDS011;9599;53.706;10.384;2022-08-03T01:35:38;5.23;;;4.67;;
18933;SDS011;9599;53.706;10.384;2022-08-03T01:38:11;5.40;;;4.90;;
18933;SDS011;9599;53.706;10.384;2022-08-03T01:40:44;6.37;;;4.80;;
18933;SDS011;9599;53.706;10.384;2022-08-03T01:43:15;5.73;;;5.03;;
18933;SDS011;9599;53.706;10.384;2022-08-03T01:46:07;5.60;;;5.00;;
18933;SDS011;9599;53.706;10.384;2022-08-03T01:48:37;5.20;;;4.70;;
18933;SDS011;9599;53.706;10.384;2022-08-03T01:51:08;7.43;;;4.50;;
18933;SDS011;9599;53.706;10.384;2022-08-03T01:53:37;6.20;;;4.87;;
18933;SDS011;9599;53.706;10.384;2022-08-03T01:56:09;5.50;;;5.00;;
18933;SDS011;9599;53.706;10.384;2022-08-03T01:58:38;5.53;;;5.03;;
18933;SDS011;9599;53.706;10.384;2022-08-03T02:01:09;7.33;;;5.37;;
18933;SDS011;9599;53.706;10.384;2022-08-03T02:03:39;5.60;;;5.10;;
18933;SDS011;9599;53.706;10.384;2022-08-03T02:06:25;9.57;;;5.57;;
18933;SDS011;9599;53.706;10.384;2022-08-03T02:09:15;5.80;;;5.30;;
18933;SDS011;9599;53.706;10.384;2022-08-03T02:11:46;6.43;;;5.20;;
18933;SDS011;9599;53.706;10.384;2022-08-03T02:14:15;6.00;;;5.50;;
18933;SDS011;9599;53.706;10.384;2022-08-03T02:16:46;5.97;;;5.43;;
18933;SDS011;9599;53.706;10.384;2022-08-03T02:19:16;6.20;;;5.60;;
18933;SDS011;9599;53.706;10.384;2022-08-03T02:21:45;5.83;;;5.33;;
18933;SDS011;9599;53.706;10.384;2022-08-03T02:24:22;6.23;;;5.63;;
18933;SDS011;9599;53.706;10.384;2022-08-03T02:26:51;6.13;;;5.53;;
18933;SDS011;9599;53.706;10.384;2022-08-03T02:29:22;6.17;;;5.50;;
18933;SDS011;9599;53.706;10.384;2022-08-03T02:32:07;6.03;;;5.33;;
18933;SDS011;9599;53.706;10.384;2022-08-03T02:34:39;6.63;;;5.50;;
18933;SDS011;9599;53.706;10.384;2022-08-03T02:37:09;6.20;;;5.70;;
18933;SDS011;9599;53.706;10.384;2022-08-03T02:39:38;6.07;;;5.50;;
18933;SDS011;9599;53.706;10.384;2022-08-03T02:42:08;6.40;;;5.80;;
18933;SDS011;9599;53.706;10.384;2022-08-03T02:44:38;7.27;;;5.63;;
18933;SDS011;9599;53.706;10.384;2022-08-03T02:47:14;6.10;;;5.60;;
18933;SDS011;9599;53.706;10.384;2022-08-03T02:49:46;6.33;;;5.73;;
18933;SDS011;9599;53.706;10.384;2022-08-03T02:52:18;6.60;;;6.00;;
18933;SDS011;9599;53.706;10.384;2022-08-03T02:54:49;6.40;;;5.80;;
18933;SDS011;9599;53.706;10.384;2022-08-03T02:57:19;6.70;;;6.00;;
18933;SDS011;9599;53.706;10.384;2022-08-03T02:59:49;6.33;;;5.73;;
18933;SDS011;9599;53.706;10.384;2022-08-03T03:02:19;6.33;;;5.73;;
18933;SDS011;9599;53.706;10.384;2022-08-03T03:04:48;7.10;;;6.40;;
18933;SDS011;9599;53.706;10.384;2022-08-03T03:07:38;6.57;;;5.73;;
18933;SDS011;9599;53.706;10.384;2022-08-03T03:10:18;7.00;;;5.67;;
18933;SDS011;9599;53.706;10.384;2022-08-03T03:12:47;6.33;;;5.73;;
18933;SDS011;9599;53.706;10.384;2022-08-03T03:15:18;6.40;;;5.80;;
18933;SDS011;9599;53.706;10.384;2022-08-03T03:17:48;7.27;;;6.17;;
18933;SDS011;9599;53.706;10.384;2022-08-03T03:20:17;7.20;;;6.47;;
18933;SDS011;9599;53.706;10.384;2022-08-03T03:22:57;7.73;;;6.30;;
18933;SDS011;9599;53.706;10.384;2022-08-03T03:25:26;7.00;;;6.30;;
18933;SDS011;9599;53.706;10.384;2022-08-03T03:27:55;6.97;;;6.27;;
18933;SDS011;9599;53.706;10.384;2022-08-03T03:30:24;7.20;;;6.47;;
18933;SDS011;9599;53.706;10.384;2022-08-03T03:32:53;6.60;;;6.00;;
18933;SDS011;9599;53.706;10.384;2022-08-03T03:35:21;7.23;;;6.53;;
18933;SDS011;9599;53.706;10.384;2022-08-03T03:37:50;7.10;;;6.20;;
18933;SDS011;9599;53.706;10.384;2022-08-03T03:40:18;7.47;;;6.40;;
18933;SDS011;9599;53.706;10.384;2022-08-03T03:42:47;6.77;;;5.90;;
18933;SDS011;9599;53.706;10.384;2022-08-03T03:45:16;8.67;;;6.30;;
18933;SDS011;9599;53.706;10.384;2022-08-03T03:47:44;7.13;;;6.50;;
18933;SDS011;9599;53.706;10.384;2022-08-03T03:50:14;7.80;;;6.00;;
18933;SDS011;9599;53.706;10.384;2022-08-03T03:52:44;6.87;;;6.20;;
18933;SDS011;9599;53.706;10.384;2022-08-03T03:55:14;8.13;;;6.60;;
18933;SDS011;9599;53.706;10.384;2022-08-03T03:57:43;6.70;;;6.10;;
18933;SDS011;9599;53.706;10.384;2022-08-03T04:00:12;6.80;;;6.20;;
18933;SDS011;9599;53.706;10.384;2022-08-03T04:02:41;7.03;;;6.37;;
18933;SDS011;9599;53.706;10.384;2022-08-03T04:05:09;7.10;;;6.40;;
18933;SDS011;9599;53.706;10.384;2022-08-03T04:07:58;7.07;;;6.47;;
18933;SDS011;9599;53.706;10.384;2022-08-03T04:10:47;6.93;;;6.33;;
18933;SDS011;9599;53.706;10.384;2022-08-03T04:13:26;8.33;;;6.93;;
18933;SDS011;9599;53.706;10.384;2022-08-03T04:15:59;7.63;;;6.57;;
18933;SDS011;9599;53.706;10.384;2022-08-03T04:18:28;7.30;;;6.70;;
18933;SDS011;9599;53.706;10.384;2022-08-03T04:21:00;7.20;;;6.50;;
18933;SDS011;9599;53.706;10.384;2022-08-03T04:23:32;7.70;;;6.90;;
18933;SDS011;9599;53.706;10.384;2022-08-03T04:26:02;7.00;;;6.30;;
18933;SDS011;9599;53.706;10.384;2022-08-03T04:28:31;7.97;;;6.70;;
18933;SDS011;9599;53.706;10.384;2022-08-03T04:31:00;7.83;;;7.03;;
18933;SDS011;9599;53.706;10.384;2022-08-03T04:33:30;7.70;;;7.00;;
18933;SDS011;9599;53.706;10.384;2022-08-03T04:36:03;7.37;;;6.67;;
18933;SDS011;9599;53.706;10.384;2022-08-03T04:38:35;8.67;;;6.50;;
18933;SDS011;9599;53.706;10.384;2022-08-03T04:41:06;7.90;;;7.20;;
18933;SDS011;9599;53.706;10.384;2022-08-03T04:43:35;7.60;;;6.90;;
18933;SDS011;9599;53.706;10.384;2022-08-03T04:46:05;7.27;;;6.57;;
18933;SDS011;9599;53.706;10.384;2022-08-03T04:48:35;12.13;;;6.30;;
18933;SDS011;9599;53.706;10.384;2022-08-03T04:51:06;7.10;;;6.50;;
18933;SDS011;9599;53.706;10.384;2022-08-03T04:53:37;7.87;;;6.33;;
18933;SDS011;9599;53.706;10.384;2022-08-03T04:56:05;8.70;;;6.70;;
18933;SDS011;9599;53.706;10.384;2022-08-03T04:58:34;7.17;;;6.57;;
18933;SDS011;9599;53.706;10.384;2022-08-03T05:01:02;7.10;;;6.50;;
18933;SDS011;9599;53.706;10.384;2022-08-03T05:03:30;7.70;;;7.10;;
18933;SDS011;9599;53.706;10.384;2022-08-03T05:05:58;8.33;;;6.57;;
18933;SDS011;9599;53.706;10.384;2022-08-03T05:08:35;7.33;;;6.63;;
18933;SDS011;9599;53.706;10.384;2022-08-03T05:11:13;7.50;;;6.20;;
18933;SDS011;9599;53.706;10.384;2022-08-03T05:13:41;7.33;;;6.27;;
18933;SDS011;9599;53.706;10.384;2022-08-03T05:16:09;8.43;;;6.47;;
18933;SDS011;9599;53.706;10.384;2022-08-03T05:18:39;7.07;;;6.47;;
18933;SDS011;9599;53.706;10.384;2022-08-03T05:21:07;6.63;;;6.00;;
18933;SDS011;9599;53.706;10.384;2022-08-03T05:23:35;6.40;;;5.80;;
18933;SDS011;9599;53.706;10.384;2022-08-03T05:26:03;6.93;;;6.27;;
18933;SDS011;9599;53.706;10.384;2022-08-03T05:28:33;6.77;;;6.23;;
18933;SDS011;9599;53.706;10.384;2022-08-03T05:31:01;6.90;;;6.30;;
18933;SDS011;9599;53.706;10.384;2022-08-03T05:33:28;7.03;;;6.30;;
18933;SDS011;9599;53.706;10.384;2022-08-03T05:35:57;6.70;;;6.00;;
18933;SDS011;9599;53.706;10.384;2022-08-03T05:38:30;7.73;;;6.20;;
18933;SDS011;9599;53.706;10.384;2022-08-03T05:41:00;6.87;;;6.17;;
18933;SDS011;9599;53.706;10.384;2022-08-03T05:43:50;7.20;;;6.17;;
18933;SDS011;9599;53.706;10.384;2022-08-03T05:46:19;6.37;;;5.77;;
18933;SDS011;9599;53.706;10.384;2022-08-03T05:48:47;6.23;;;5.63;;
18933;SDS011;9599;53.706;10.384;2022-08-03T05:51:15;7.50;;;6.07;;
18933;SDS011;9599;53.706;10.384;2022-08-03T05:53:43;6.20;;;5.50;;
18933;SDS011;9599;53.706;10.384;2022-08-03T05:56:11;7.20;;;6.03;;
18933;SDS011;9599;53.706;10.384;2022-08-03T05:58:42;6.70;;;5.53;;
18933;SDS011;9599;53.706;10.384;2022-08-03T06:01:12;5.97;;;5.47;;
18933;SDS011;9599;53.706;10.384;2022-08-03T06:03:40;8.13;;;5.33;;
18933;SDS011;9599;53.706;10.384;2022-08-03T06:06:08;5.97;;;5.30;;
18933;SDS011;9599;53.706;10.384;2022-08-03T06:08:37;5.37;;;4.87;;
18933;SDS011;9599;53.706;10.384;2022-08-03T06:11:05;8.00;;;4.73;;
18933;SDS011;9599;53.706;10.384;2022-08-03T06:13:33;5.60;;;5.10;;
18933;SDS011;9599;53.706;10.384;2022-08-03T06:16:02;5.60;;;5.10;;
18933;SDS011;9599;53.706;10.384;2022-08-03T06:18:31;5.13;;;4.63;;
18933;SDS011;9599;53.706;10.384;2022-08-03T06:21:00;5.90;;;4.40;;
18933;SDS011;9599;53.706;10.384;2022-08-03T06:23:41;5.83;;;4.50;;
18933;SDS011;9599;53.706;10.384;2022-08-03T06:26:21;5.40;;;4.73;;
18933;SDS011;9599;53.706;10.384;2022-08-03T06:28:50;6.47;;;4.50;;
18933;SDS011;9599;53.706;10.384;2022-08-03T06:31:21;4.70;;;4.20;;
18933;SDS011;9599;53.706;10.384;2022-08-03T06:34:00;4.93;;;4.50;;
18933;SDS011;9599;53.706;10.384;2022-08-03T06:36:49;4.93;;;4.43;;
18933;SDS011;9599;53.706;10.384;2022-08-03T06:39:17;6.10;;;3.70;;
18933;SDS011;9599;53.706;10.384;2022-08-03T06:41:49;3.90;;;3.60;;
18933;SDS011;9599;53.706;10.384;2022-08-03T06:44:17;6.80;;;3.80;;
18933;SDS011;9599;53.706;10.384;2022-08-03T06:46:46;4.30;;;3.90;;
18933;SDS011;9599;53.706;10.384;2022-08-03T06:49:15;4.20;;;3.80;;
18933;SDS011;9599;53.706;10.384;2022-08-03T06:51:44;5.27;;;3.70;;
18933;SDS011;9599;53.706;10.384;2022-08-03T06:54:32;5.53;;;3.93;;
18933;SDS011;9599;53.706;10.384;2022-08-03T06:57:01;4.30;;;3.80;;
18933;SDS011;9599;53.706;10.384;2022-08-03T06:59:30;4.17;;;3.70;;
18933;SDS011;9599;53.706;10.384;2022-08-03T07:02:17;9.63;;;3.87;;
18933;SDS011;9599;53.706;10.384;2022-08-03T07:04:47;5.43;;;3.80;;
18933;SDS011;9599;53.706;10.384;2022-08-03T07:07:15;4.07;;;3.40;;
18933;SDS011;9599;53.706;10.384;2022-08-03T07:09:44;4.33;;;3.40;;
18933;SDS011;9599;53.706;10.384;2022-08-03T07:12:23;4.03;;;3.50;;
18933;SDS011;9599;53.706;10.384;2022-08-03T07:14:51;4.83;;;3.70;;
18933;SDS011;9599;53.706;10.384;2022-08-03T07:17:26;3.83;;;3.37;;
18933;SDS011;9599;53.706;10.384;2022-08-03T07:19:56;4.97;;;3.58;;
18933;SDS011;9599;53.706;10.384;2022-08-03T07:22:25;5.40;;;3.60;;
18933;SDS011;9599;53.706;10.384;2022-08-03T07:24:53;5.75;;;3.38;;
18933;SDS011;9599;53.706;10.384;2022-08-03T07:27:21;6.73;;;3.30;;
18933;SDS011;9599;53.706;10.384;2022-08-03T07:29:52;3.67;;;3.10;;
18933;SDS011;9599;53.706;10.384;2022-08-03T07:32:20;3.90;;;3.13;;
18933;SDS011;9599;53.706;10.384;2022-08-03T07:34:48;4.43;;;3.10;;
18933;SDS011;9599;53.706;10.384;2022-08-03T07:37:17;4.72;;;2.90;;
18933;SDS011;9599;53.706;10.384;2022-08-03T07:39:45;3.00;;;2.67;;
18933;SDS011;9599;53.706;10.384;2022-08-03T07:42:13;4.57;;;2.90;;
18933;SDS011;9599;53.706;10.384;2022-08-03T07:44:42;4.13;;;2.80;;
18933;SDS011;9599;53.706;10.384;2022-08-03T07:47:09;4.35;;;3.00;;
18933;SDS011;9599;53.706;10.384;2022-08-03T07:49:48;5.50;;;2.88;;
18933;SDS011;9599;53.706;10.384;2022-08-03T07:52:17;3.03;;;2.70;;
18933;SDS011;9599;53.706;10.384;2022-08-03T07:55:03;4.55;;;2.47;;
18933;SDS011;9599;53.706;10.384;2022-08-03T07:57:33;9.50;;;2.67;;
18933;SDS011;9599;53.706;10.384;2022-08-03T08:00:03;3.00;;;2.60;;
18933;SDS011;9599;53.706;10.384;2022-08-03T08:02:40;4.22;;;2.60;;
18933;SDS011;9599;53.706;10.384;2022-08-03T08:05:08;4.85;;;2.67;;
18933;SDS011;9599;53.706;10.384;2022-08-03T08:07:39;5.28;;;2.58;;
18933;SDS011;9599;53.706;10.384;2022-08-03T08:10:08;3.67;;;2.67;;
18933;SDS011;9599;53.706;10.384;2022-08-03T08:12:38;3.75;;;2.60;;
18933;SDS011;9599;53.706;10.384;2022-08-03T08:15:07;3.25;;;2.65;;
18933;SDS011;9599;53.706;10.384;2022-08-03T08:17:42;4.75;;;2.70;;
18933;SDS011;9599;53.706;10.384;2022-08-03T08:20:15;4.28;;;2.60;;
18933;SDS011;9599;53.706;10.384;2022-08-03T08:22:55;3.42;;;2.70;;
18933;SDS011;9599;53.706;10.384;2022-08-03T08:25:27;3.00;;;2.47;;
18933;SDS011;9599;53.706;10.384;2022-08-03T08:27:55;4.20;;;2.60;;
18933;SDS011;9599;53.706;10.384;2022-08-03T08:30:47;7.25;;;2.72;;
18933;SDS011;9599;53.706;10.384;2022-08-03T08:33:15;6.75;;;2.80;;
18933;SDS011;9599;53.706;10.384;2022-08-03T08:35:49;6.47;;;2.75;;
18933;SDS011;9599;53.706;10.384;2022-08-03T08:38:20;8.40;;;2.88;;
18933;SDS011;9599;53.706;10.384;2022-08-03T08:40:49;7.53;;;2.60;;
18933;SDS011;9599;53.706;10.384;2022-08-03T08:43:17;4.22;;;2.85;;
18933;SDS011;9599;53.706;10.384;2022-08-03T08:45:45;3.22;;;2.58;;
18933;SDS011;9599;53.706;10.384;2022-08-03T08:48:15;4.93;;;2.60;;
18933;SDS011;9599;53.706;10.384;2022-08-03T08:50:46;5.68;;;2.78;;
18933;SDS011;9599;53.706;10.384;2022-08-03T08:53:15;3.45;;;2.50;;
18933;SDS011;9599;53.706;10.384;2022-08-03T08:55:53;6.30;;;2.70;;
18933;SDS011;9599;53.706;10.384;2022-08-03T08:58:27;5.32;;;2.40;;
18933;SDS011;9599;53.706;10.384;2022-08-03T09:00:56;5.53;;;2.60;;
18933;SDS011;9599;53.706;10.384;2022-08-03T09:03:25;4.97;;;2.47;;
18933;SDS011;9599;53.706;10.384;2022-08-03T09:05:55;8.60;;;2.97;;
18933;SDS011;9599;53.706;10.384;2022-08-03T09:08:25;5.90;;;2.50;;
18933;SDS011;9599;53.706;10.384;2022-08-03T09:10:54;4.07;;;2.55;;
18933;SDS011;9599;53.706;10.384;2022-08-03T09:13:22;3.95;;;2.10;;
18933;SDS011;9599;53.706;10.384;2022-08-03T09:18:38;6.63;;;2.40;;
18933;SDS011;9599;53.706;10.384;2022-08-03T09:21:18;5.22;;;2.45;;
18933;SDS011;9599;53.706;10.384;2022-08-03T09:24:04;6.70;;;2.60;;
18933;SDS011;9599;53.706;10.384;2022-08-03T09:26:49;4.80;;;2.30;;
18933;SDS011;9599;53.706;10.384;2022-08-03T09:29:19;5.45;;;2.58;;
18933;SDS011;9599;53.706;10.384;2022-08-03T09:31:47;6.13;;;2.30;;
18933;SDS011;9599;53.706;10.384;2022-08-03T09:34:16;5.95;;;2.50;;
18933;SDS011;9599;53.706;10.384;2022-08-03T09:36:45;5.28;;;2.45;;
18933;SDS011;9599;53.706;10.384;2022-08-03T09:39:14;9.13;;;2.88;;
18933;SDS011;9599;53.706;10.384;2022-08-03T09:41:44;4.63;;;2.25;;
18933;SDS011;9599;53.706;10.384;2022-08-03T09:44:14;10.00;;;2.58;;
18933;SDS011;9599;53.706;10.384;2022-08-03T09:46:51;4.55;;;2.40;;
18933;SDS011;9599;53.706;10.384;2022-08-03T09:49:20;3.70;;;2.30;;
18933;SDS011;9599;53.706;10.384;2022-08-03T09:51:49;3.78;;;2.30;;
18933;SDS011;9599;53.706;10.384;2022-08-03T09:54:37;7.07;;;3.25;;
18933;SDS011;9599;53.706;10.384;2022-08-03T09:57:05;6.85;;;2.40;;
18933;SDS011;9599;53.706;10.384;2022-08-03T09:59:35;5.47;;;2.20;;
18933;SDS011;9599;53.706;10.384;2022-08-03T10:02:06;5.80;;;2.30;;
18933;SDS011;9599;53.706;10.384;2022-08-03T10:04:48;5.20;;;2.22;;
18933;SDS011;9599;53.706;10.384;2022-08-03T10:07:18;7.03;;;2.50;;
18933;SDS011;9599;53.706;10.384;2022-08-03T10:09:52;6.18;;;2.20;;
18933;SDS011;9599;53.706;10.384;2022-08-03T10:12:21;3.42;;;1.98;;
18933;SDS011;9599;53.706;10.384;2022-08-03T10:14:52;4.93;;;2.33;;
18933;SDS011;9599;53.706;10.384;2022-08-03T10:17:20;5.63;;;1.80;;
18933;SDS011;9599;53.706;10.384;2022-08-03T10:19:49;5.72;;;2.13;;
18933;SDS011;9599;53.706;10.384;2022-08-03T10:22:18;3.70;;;2.05;;
18933;SDS011;9599;53.706;10.384;2022-08-03T10:24:52;5.95;;;2.10;;
18933;SDS011;9599;53.706;10.384;2022-08-03T10:27:22;6.22;;;2.40;;
18933;SDS011;9599;53.706;10.384;2022-08-03T10:29:54;5.65;;;2.20;;
18933;SDS011;9599;53.706;10.384;2022-08-03T10:32:24;3.75;;;2.17;;
18933;SDS011;9599;53.706;10.384;2022-08-03T10:34:58;3.85;;;2.20;;
18933;SDS011;9599;53.706;10.384;2022-08-03T10:37:48;5.28;;;2.38;;
18933;SDS011;9599;53.706;10.384;2022-08-03T10:40:25;5.50;;;2.10;;
18933;SDS011;9599;53.706;10.384;2022-08-03T10:43:17;4.72;;;2.17;;
18933;SDS011;9599;53.706;10.384;2022-08-03T10:45:47;4.20;;;2.20;;
18933;SDS011;9599;53.706;10.384;2022-08-03T10:48:16;4.70;;;1.92;;
18933;SDS011;9599;53.706;10.384;2022-08-03T10:50:45;4.30;;;2.10;;
18933;SDS011;9599;53.706;10.384;2022-08-03T10:53:15;6.75;;;2.17;;
18933;SDS011;9599;53.706;10.384;2022-08-03T10:56:00;3.90;;;2.15;;
18933;SDS011;9599;53.706;10.384;2022-08-03T10:59:06;6.00;;;2.10;;
18933;SDS011;9599;53.706;10.384;2022-08-03T11:01:50;4.07;;;1.80;;
18933;SDS011;9599;53.706;10.384;2022-08-03T11:04:26;5.72;;;2.42;;
18933;SDS011;9599;53.706;10.384;2022-08-03T11:09:46;7.28;;;2.15;;
18933;SDS011;9599;53.706;10.384;2022-08-03T11:12:20;7.68;;;2.53;;
18933;SDS011;9599;53.706;10.384;2022-08-03T11:14:57;6.90;;;2.15;;
18933;SDS011;9599;53.706;10.384;2022-08-03T11:17:28;4.25;;;2.22;;
18933;SDS011;9599;53.706;10.384;2022-08-03T11:19:56;6.50;;;2.10;;
18933;SDS011;9599;53.706;10.384;2022-08-03T11:22:24;4.07;;;2.20;;
18933;SDS011;9599;53.706;10.384;2022-08-03T11:25:12;5.43;;;2.60;;
18933;SDS011;9599;53.706;10.384;2022-08-03T11:30:52;4.47;;;2.03;;
18933;SDS011;9599;53.706;10.384;2022-08-03T11:33:30;4.53;;;1.85;;
18933;SDS011;9599;53.706;10.384;2022-08-03T11:35:59;8.63;;;1.83;;
18933;SDS011;9599;53.706;10.384;2022-08-03T11:38:27;4.68;;;1.88;;
18933;SDS011;9599;53.706;10.384;2022-08-03T11:40:55;4.15;;;2.03;;
18933;SDS011;9599;53.706;10.384;2022-08-03T11:46:10;4.30;;;2.08;;
18933;SDS011;9599;53.706;10.384;2022-08-03T11:49:01;5.50;;;1.88;;
18933;SDS011;9599;53.706;10.384;2022-08-03T11:51:36;6.60;;;2.15;;
18933;SDS011;9599;53.706;10.384;2022-08-03T11:54:05;4.95;;;2.30;;
18933;SDS011;9599;53.706;10.384;2022-08-03T11:56:42;7.82;;;1.98;;
18933;SDS011;9599;53.706;10.384;2022-08-03T11:59:11;5.72;;;2.17;;
18933;SDS011;9599;53.706;10.384;2022-08-03T12:01:46;6.28;;;2.13;;
18933;SDS011;9599;53.706;10.384;2022-08-03T12:04:16;5.13;;;1.90;;
18933;SDS011;9599;53.706;10.384;2022-08-03T12:06:56;2.20;;;1.98;;
18933;SDS011;9599;53.706;10.384;2022-08-03T12:09:24;7.50;;;2.20;;
18933;SDS011;9599;53.706;10.384;2022-08-03T12:11:52;4.45;;;1.83;;
18933;SDS011;9599;53.706;10.384;2022-08-03T12:14:26;4.95;;;2.03;;
18933;SDS011;9599;53.706;10.384;2022-08-03T12:17:15;3.38;;;1.80;;
18933;SDS011;9599;53.706;10.384;2022-08-03T12:19:45;4.53;;;1.80;;
18933;SDS011;9599;53.706;10.384;2022-08-03T12:22:13;5.90;;;2.05;;
18933;SDS011;9599;53.706;10.384;2022-08-03T12:24:42;4.28;;;1.90;;
18933;SDS011;9599;53.706;10.384;2022-08-03T12:27:21;6.32;;;1.88;;
18933;SDS011;9599;53.706;10.384;2022-08-03T12:29:50;6.28;;;2.00;;
18933;SDS011;9599;53.706;10.384;2022-08-03T12:32:24;7.22;;;2.10;;
18933;SDS011;9599;53.706;10.384;2022-08-03T12:34:54;6.55;;;1.95;;
18933;SDS011;9599;53.706;10.384;2022-08-03T12:37:26;5.97;;;1.90;;
18933;SDS011;9599;53.706;10.384;2022-08-03T12:39:56;6.25;;;1.92;;
18933;SDS011;9599;53.706;10.384;2022-08-03T12:42:35;4.22;;;2.13;;
18933;SDS011;9599;53.706;10.384;2022-08-03T12:45:17;6.40;;;2.45;;
18933;SDS011;9599;53.706;10.384;2022-08-03T12:47:50;6.93;;;1.95;;
18933;SDS011;9599;53.706;10.384;2022-08-03T12:50:24;5.45;;;2.30;;
18933;SDS011;9599;53.706;10.384;2022-08-03T12:52:54;8.55;;;2.20;;
18933;SDS011;9599;53.706;10.384;2022-08-03T12:55:23;5.57;;;2.22;;
18933;SDS011;9599;53.706;10.384;2022-08-03T12:58:27;5.53;;;2.00;;
18933;SDS011;9599;53.706;10.384;2022-08-03T13:00:59;4.88;;;1.80;;
18933;SDS011;9599;53.706;10.384;2022-08-03T13:03:43;5.40;;;1.80;;
18933;SDS011;9599;53.706;10.384;2022-08-03T13:06:17;5.40;;;1.95;;
18933;SDS011;9599;53.706;10.384;2022-08-03T13:08:46;2.53;;;1.92;;
18933;SDS011;9599;53.706;10.384;2022-08-03T13:11:20;7.22;;;2.00;;
18933;SDS011;9599;53.706;10.384;2022-08-03T13:14:09;3.15;;;1.70;;
18933;SDS011;9599;53.706;10.384;2022-08-03T13:16:42;6.35;;;1.92;;
18933;SDS011;9599;53.706;10.384;2022-08-03T13:19:10;3.60;;;2.08;;
18933;SDS011;9599;53.706;10.384;2022-08-03T13:21:42;6.57;;;1.90;;
18933;SDS011;9599;53.706;10.384;2022-08-03T13:24:29;4.70;;;1.77;;
18933;SDS011;9599;53.706;10.384;2022-08-03T13:26:57;5.07;;;1.70;;
18933;SDS011;9599;53.706;10.384;2022-08-03T13:29:25;6.78;;;2.05;;
18933;SDS011;9599;53.706;10.384;2022-08-03T13:31:53;4.28;;;1.67;;
18933;SDS011;9599;53.706;10.384;2022-08-03T13:34:21;5.45;;;1.90;;
18933;SDS011;9599;53.706;10.384;2022-08-03T13:36:50;4.50;;;1.80;;
18933;SDS011;9599;53.706;10.384;2022-08-03T13:39:33;4.10;;;1.60;;
18933;SDS011;9599;53.706;10.384;2022-08-03T13:42:21;4.53;;;1.60;;
18933;SDS011;9599;53.706;10.384;2022-08-03T13:44:49;6.50;;;1.92;;
18933;SDS011;9599;53.706;10.384;2022-08-03T13:47:19;4.75;;;1.85;;
18933;SDS011;9599;53.706;10.384;2022-08-03T13:49:47;4.43;;;2.00;;
18933;SDS011;9599;53.706;10.384;2022-08-03T13:52:29;4.80;;;1.92;;
18933;SDS011;9599;53.706;10.384;2022-08-03T13:54:58;4.93;;;1.67;;
18933;SDS011;9599;53.706;10.384;2022-08-03T13:57:26;5.07;;;1.80;;
18933;SDS011;9599;53.706;10.384;2022-08-03T14:00:15;7.50;;;1.73;;
18933;SDS011;9599;53.706;10.384;2022-08-03T14:02:54;7.50;;;2.00;;
18933;SDS011;9599;53.706;10.384;2022-08-03T14:05:40;5.13;;;2.05;;
18933;SDS011;9599;53.706;10.384;2022-08-03T14:08:10;3.53;;;1.88;;
18933;SDS011;9599;53.706;10.384;2022-08-03T14:10:40;3.67;;;1.98;;
18933;SDS011;9599;53.706;10.384;2022-08-03T14:13:09;3.63;;;1.90;;
18933;SDS011;9599;53.706;10.384;2022-08-03T14:15:43;5.55;;;1.95;;
18933;SDS011;9599;53.706;10.384;2022-08-03T14:18:15;3.63;;;1.65;;
18933;SDS011;9599;53.706;10.384;2022-08-03T14:20:59;3.40;;;1.77;;
18933;SDS011;9599;53.706;10.384;2022-08-03T14:23:33;3.42;;;1.70;;
18933;SDS011;9599;53.706;10.384;2022-08-03T14:26:02;5.03;;;1.77;;
18933;SDS011;9599;53.706;10.384;2022-08-03T14:28:30;6.97;;;1.90;;
18933;SDS011;9599;53.706;10.384;2022-08-03T14:30:58;4.55;;;1.80;;
18933;SDS011;9599;53.706;10.384;2022-08-03T14:33:27;5.38;;;2.15;;
18933;SDS011;9599;53.706;10.384;2022-08-03T14:35:56;5.32;;;2.08;;
18933;SDS011;9599;53.706;10.384;2022-08-03T14:38:23;4.57;;;1.92;;
18933;SDS011;9599;53.706;10.384;2022-08-03T14:40:53;4.40;;;1.73;;
18933;SDS011;9599;53.706;10.384;2022-08-03T14:43:21;8.13;;;2.30;;
18933;SDS011;9599;53.706;10.384;2022-08-03T14:45:49;2.53;;;1.70;;
18933;SDS011;9599;53.706;10.384;2022-08-03T14:48:19;6.95;;;1.92;;
18933;SDS011;9599;53.706;10.384;2022-08-03T14:51:07;8.55;;;2.08;;
18933;SDS011;9599;53.706;10.384;2022-08-03T14:53:35;3.60;;;2.10;;
18933;SDS011;9599;53.706;10.384;2022-08-03T14:56:05;7.30;;;2.08;;
18933;SDS011;9599;53.706;10.384;2022-08-03T14:58:36;5.05;;;1.83;;
18933;SDS011;9599;53.706;10.384;2022-08-03T15:01:04;4.85;;;1.90;;
18933;SDS011;9599;53.706;10.384;2022-08-03T15:03:53;4.85;;;2.20;;
18933;SDS011;9599;53.706;10.384;2022-08-03T15:06:21;5.43;;;2.20;;
18933;SDS011;9599;53.706;10.384;2022-08-03T15:08:49;4.75;;;1.90;;
18933;SDS011;9599;53.706;10.384;2022-08-03T15:11:38;5.63;;;1.80;;
18933;SDS011;9599;53.706;10.384;2022-08-03T15:14:06;4.80;;;1.90;;
18933;SDS011;9599;53.706;10.384;2022-08-03T15:16:35;3.97;;;1.95;;
18933;SDS011;9599;53.706;10.384;2022-08-03T15:19:03;3.67;;;1.90;;
18933;SDS011;9599;53.706;10.384;2022-08-03T15:21:51;5.30;;;1.80;;
18933;SDS011;9599;53.706;10.384;2022-08-03T15:24:19;3.88;;;1.80;;
18933;SDS011;9599;53.706;10.384;2022-08-03T15:26:49;2.67;;;2.00;;
18933;SDS011;9599;53.706;10.384;2022-08-03T15:29:17;4.93;;;1.95;;
18933;SDS011;9599;53.706;10.384;2022-08-03T15:32:05;3.47;;;1.98;;